createdAt,value
2023-02-27T00:00:10.242Z,-2.27
2023-02-27T00:00:40.910Z,-2.27
2023-02-27T00:01:14.481Z,-2.27
2023-02-27T00:01:45.103Z,-2.27
2023-02-27T00:02:13.041Z,-2.27
2023-02-27T00:02:49.181Z,-2.22
2023-02-27T00:03:15.097Z,-2.22
2023-02-27T00:03:46.740Z,-2.22
2023-02-27T00:04:16.871Z,-2.22
2023-02-27T00:04:55.134Z,-2.22
2023-02-27T00:05:20.265Z,-2.22
2023-02-27T00:05:51.060Z,-2.22
2023-02-27T00:06:20.944Z,-2.22
2023-02-27T00:06:58.848Z,-2.22
2023-02-27T00:07:23.574Z,-2.22
2023-02-27T00:07:54.654Z,-2.22
2023-02-27T00:08:25.970Z,-2.22
2023-02-27T00:08:56.615Z,-2.22
2023-02-27T00:09:26.893Z,-2.22
2023-02-27T00:09:58.540Z,-2.22
2023-02-27T00:10:30.237Z,-2.11
2023-02-27T00:11:00.843Z,-2.11
2023-02-27T00:11:30.853Z,-2.11
2023-02-27T00:12:02.694Z,-2.11
2023-02-27T00:12:33.161Z,-2.11
2023-02-27T00:13:04.569Z,-2.11
2023-02-27T00:13:40.488Z,-2.11
2023-02-27T00:14:06.665Z,-2.11
2023-02-27T00:14:38.583Z,-2.11
2023-02-27T00:15:16.934Z,-2.11
2023-02-27T00:15:48.458Z,-2.11
2023-02-27T00:16:13.079Z,-2.11
2023-02-27T00:16:40.864Z,-2.11
2023-02-27T00:17:12.576Z,-2.11
2023-02-27T00:17:42.821Z,-2.11
2023-02-27T00:18:14.580Z,-2.11
2023-02-27T00:18:45.140Z,-2.11
2023-02-27T00:19:16.615Z,-2.11
2023-02-27T00:19:46.867Z,-2.11
2023-02-27T00:20:18.603Z,-2.11
2023-02-27T00:20:50.404Z,-2.11
2023-02-27T00:21:20.666Z,-2.11
2023-02-27T00:21:51.696Z,-2.11
2023-02-27T00:22:22.621Z,-2.11
2023-02-27T00:22:53.157Z,-2.11
2023-02-27T00:23:24.589Z,-2.11
2023-02-27T00:23:55.003Z,-2.11
2023-02-27T00:24:26.720Z,-2.11
2023-02-27T00:24:57.296Z,-2.11
2023-02-27T00:25:29.066Z,-2.11
2023-02-27T00:25:59.849Z,-2.11
2023-02-27T00:26:30.589Z,-2.11
2023-02-27T00:27:01.402Z,-2.11
2023-02-27T00:27:32.546Z,-2.11
2023-02-27T00:28:03.321Z,-2.11
2023-02-27T00:28:35.043Z,-2.11
2023-02-27T00:29:05.219Z,-2.11
2023-02-27T00:29:37.450Z,-2.11
2023-02-27T00:30:07.795Z,-2.11
2023-02-27T00:30:38.672Z,-2.11
2023-02-27T00:31:10.802Z,-2.11
2023-02-27T00:31:41.029Z,-2.11
2023-02-27T00:32:10.959Z,-2.11
2023-02-27T00:32:42.652Z,-2.11
2023-02-27T00:33:12.821Z,-2.11
2023-02-27T00:33:44.640Z,-2.11
2023-02-27T00:34:14.858Z,-2.11
2023-02-27T00:34:46.538Z,-2.11
2023-02-27T00:35:18.078Z,-2.11
2023-02-27T00:35:48.672Z,-2.11
2023-02-27T00:36:19.840Z,-2.11
2023-02-27T00:36:50.761Z,-2.11
2023-02-27T00:37:20.908Z,-2.11
2023-02-27T00:37:52.630Z,-2.11
2023-02-27T00:38:23.042Z,-2.11
2023-02-27T00:38:54.661Z,-2.11
2023-02-27T00:39:25.152Z,-2.11
2023-02-27T00:39:56.541Z,-2.11
2023-02-27T00:40:37.551Z,-2.11
2023-02-27T00:40:58.776Z,-2.11
2023-02-27T00:41:29.883Z,-2.11
2023-02-27T00:42:01.452Z,-2.11
2023-02-27T00:42:30.977Z,-2.11
2023-02-27T00:43:02.670Z,-2.11
2023-02-27T00:43:33.099Z,-2.11
2023-02-27T00:44:04.612Z,-2.11
2023-02-27T00:44:34.834Z,-2.00
2023-02-27T00:45:07.491Z,-2.00
2023-02-27T00:45:36.947Z,-2.00
2023-02-27T00:46:08.521Z,-1.88
2023-02-27T00:46:39.916Z,-1.88
2023-02-27T00:47:10.575Z,-1.88
2023-02-27T00:47:40.855Z,-1.88
2023-02-27T00:48:12.551Z,-1.88
2023-02-27T00:48:43.785Z,-1.77
2023-02-27T00:49:14.558Z,-1.77
2023-02-27T00:49:45.740Z,-1.77
2023-02-27T00:50:17.007Z,-1.77
2023-02-27T00:50:46.868Z,-1.77
2023-02-27T00:51:18.518Z,-1.77
2023-02-27T00:51:49.832Z,-1.77
2023-02-27T00:52:20.620Z,-1.77
2023-02-27T00:52:51.135Z,-1.88
2023-02-27T00:53:22.547Z,-1.88
2023-02-27T00:53:53.098Z,-2.00
2023-02-27T00:54:24.531Z,-2.00
2023-02-27T00:54:54.864Z,-2.00
2023-02-27T00:55:27.595Z,-2.00
2023-02-27T00:55:56.877Z,-2.00
2023-02-27T00:56:28.615Z,-2.00
2023-02-27T00:56:59.870Z,-2.00
2023-02-27T00:57:30.620Z,-1.88
2023-02-27T00:58:00.909Z,-1.88
2023-02-27T00:58:32.527Z,-1.88
2023-02-27T00:59:03.006Z,-1.88
2023-02-27T00:59:34.536Z,-1.88
2023-02-27T01:00:06.703Z,-1.88
2023-02-27T01:00:43.242Z,-1.88
2023-02-27T01:01:06.928Z,-1.88
2023-02-27T01:01:38.637Z,-1.88
2023-02-27T01:02:10.352Z,-1.88
2023-02-27T01:02:41.884Z,-1.88
2023-02-27T01:03:10.879Z,-1.77
2023-02-27T01:03:42.750Z,-1.72
2023-02-27T01:04:12.831Z,-1.72
2023-02-27T01:04:44.547Z,-1.72
2023-02-27T01:05:15.255Z,-1.72
2023-02-27T01:05:46.529Z,-1.72
2023-02-27T01:06:17.048Z,-1.72
2023-02-27T01:06:48.517Z,-1.72
2023-02-27T01:07:19.790Z,-1.72
2023-02-27T01:07:50.604Z,-1.72
2023-02-27T01:08:20.829Z,-1.72
2023-02-27T01:08:53.852Z,-1.72
2023-02-27T01:09:22.915Z,-1.72
2023-02-27T01:09:54.586Z,-1.72
2023-02-27T01:10:25.816Z,-1.72
2023-02-27T01:10:56.510Z,-1.72
2023-02-27T01:11:27.164Z,-1.72
2023-02-27T01:11:58.544Z,-1.72
2023-02-27T01:12:29.846Z,-1.72
2023-02-27T01:13:00.844Z,-1.72
2023-02-27T01:13:31.080Z,-1.72
2023-02-27T01:14:02.831Z,-1.72
2023-02-27T01:14:32.887Z,-1.72
2023-02-27T01:15:05.921Z,-1.72
2023-02-27T01:15:35.464Z,-1.72
2023-02-27T01:16:06.607Z,-1.72
2023-02-27T01:16:36.858Z,-1.61
2023-02-27T01:17:08.540Z,-1.50
2023-02-27T01:17:39.909Z,-1.50
2023-02-27T01:18:10.565Z,-1.50
2023-02-27T01:18:40.874Z,-1.50
2023-02-27T01:19:12.644Z,-1.61
2023-02-27T01:19:43.070Z,-1.61
2023-02-27T01:20:15.126Z,-1.72
2023-02-27T01:20:45.720Z,-1.72
2023-02-27T01:21:16.525Z,-1.72
2023-02-27T01:21:46.880Z,-1.77
2023-02-27T01:22:19.061Z,-1.77
2023-02-27T01:22:49.839Z,-1.77
2023-02-27T01:23:20.525Z,-1.77
2023-02-27T01:23:50.867Z,-1.77
2023-02-27T01:24:22.508Z,-1.77
2023-02-27T01:24:52.995Z,-1.77
2023-02-27T01:25:25.068Z,-1.77
2023-02-27T01:25:54.893Z,-1.77
2023-02-27T01:26:26.678Z,-1.77
2023-02-27T01:26:56.964Z,-1.72
2023-02-27T01:27:29.748Z,-1.72
2023-02-27T01:27:59.977Z,-1.72
2023-02-27T01:28:30.727Z,-1.72
2023-02-27T01:29:00.866Z,-1.72
2023-02-27T01:29:32.600Z,-1.77
2023-02-27T01:30:03.935Z,-1.77
2023-02-27T01:30:34.726Z,-1.77
2023-02-27T01:31:05.167Z,-1.77
2023-02-27T01:31:36.636Z,-1.77
2023-02-27T01:32:06.957Z,-1.77
2023-02-27T01:32:38.983Z,-1.77
2023-02-27T01:33:09.908Z,-1.77
2023-02-27T01:33:40.953Z,-1.77
2023-02-27T01:34:10.905Z,-1.77
2023-02-27T01:34:42.531Z,-1.77
2023-02-27T01:35:13.305Z,-1.72
2023-02-27T01:35:45.055Z,-1.61
2023-02-27T01:36:15.354Z,-1.61
2023-02-27T01:36:46.657Z,-1.61
2023-02-27T01:37:16.845Z,-1.61
2023-02-27T01:37:48.510Z,-1.61
2023-02-27T01:38:19.828Z,-1.61
2023-02-27T01:38:50.512Z,-1.61
2023-02-27T01:39:20.824Z,-1.72
2023-02-27T01:39:52.837Z,-1.72
2023-02-27T01:40:23.784Z,-1.72
2023-02-27T01:40:54.576Z,-1.72
2023-02-27T01:41:25.506Z,-1.72
2023-02-27T01:41:56.748Z,-1.61
2023-02-27T01:42:26.861Z,-1.61
2023-02-27T01:42:58.777Z,-1.61
2023-02-27T01:43:29.802Z,-1.61
2023-02-27T01:44:00.850Z,-1.50
2023-02-27T01:44:30.800Z,-1.50
2023-02-27T01:45:04.103Z,-1.50
2023-02-27T01:45:32.963Z,-1.50
2023-02-27T01:46:04.865Z,-1.50
2023-02-27T01:46:35.139Z,-1.50
2023-02-27T01:47:06.644Z,-1.50
2023-02-27T01:47:36.821Z,-1.50
2023-02-27T01:48:08.539Z,-1.50
2023-02-27T01:48:39.837Z,-1.50
2023-02-27T01:49:11.234Z,-1.50
2023-02-27T01:49:40.955Z,-1.50
2023-02-27T01:50:12.957Z,-1.50
2023-02-27T01:50:42.836Z,-1.50
2023-02-27T01:51:14.541Z,-1.50
2023-02-27T01:51:45.115Z,-1.50
2023-02-27T01:52:16.985Z,-1.50
2023-02-27T01:52:46.813Z,-1.61
2023-02-27T01:53:18.571Z,-1.61
2023-02-27T01:53:49.864Z,-1.61
2023-02-27T01:54:20.574Z,-1.61
2023-02-27T01:54:50.861Z,-1.61
2023-02-27T01:55:23.430Z,-1.61
2023-02-27T01:55:52.865Z,-1.61
2023-02-27T01:56:24.687Z,-1.61
2023-02-27T01:56:54.817Z,-1.61
2023-02-27T01:57:26.672Z,-1.61
2023-02-27T01:57:56.816Z,-1.61
2023-02-27T01:58:28.543Z,-1.61
2023-02-27T01:58:59.823Z,-1.61
2023-02-27T01:59:30.582Z,-1.61
2023-02-27T02:00:03.364Z,-1.61
2023-02-27T02:00:32.017Z,-1.61
2023-02-27T02:01:03.033Z,-1.61
2023-02-27T02:01:34.610Z,-1.50
2023-02-27T02:02:05.186Z,-1.50
2023-02-27T02:02:37.420Z,-1.50
2023-02-27T02:03:06.901Z,-1.50
2023-02-27T02:03:38.521Z,-1.50
2023-02-27T02:04:09.817Z,-1.50
2023-02-27T02:04:40.594Z,-1.50
2023-02-27T02:05:11.311Z,-1.50
2023-02-27T02:05:42.529Z,-1.50
2023-02-27T02:06:12.904Z,-1.61
2023-02-27T02:06:44.502Z,-1.61
2023-02-27T02:07:14.878Z,-1.61
2023-02-27T02:07:46.784Z,-1.72
2023-02-27T02:08:16.911Z,-1.72
2023-02-27T02:08:48.538Z,-1.72
2023-02-27T02:09:20.176Z,-1.72
2023-02-27T02:09:50.543Z,-1.77
2023-02-27T02:10:21.984Z,-1.77
2023-02-27T02:10:52.763Z,-1.77
2023-02-27T02:11:22.831Z,-1.77
2023-02-27T02:11:54.547Z,-1.72
2023-02-27T02:12:25.187Z,-1.72
2023-02-27T02:12:56.547Z,-1.72
2023-02-27T02:13:27.189Z,-1.72
2023-02-27T02:13:58.617Z,-1.72
2023-02-27T02:14:29.852Z,-1.72
2023-02-27T02:15:00.969Z,-1.72
2023-02-27T02:15:31.593Z,-1.72
2023-02-27T02:16:03.090Z,-1.72
2023-02-27T02:16:32.891Z,-1.72
2023-02-27T02:17:04.552Z,-1.72
2023-02-27T02:17:34.842Z,-1.72
2023-02-27T02:18:06.591Z,-1.72
2023-02-27T02:18:36.802Z,-1.72
2023-02-27T02:19:08.543Z,-1.72
2023-02-27T02:19:39.873Z,-1.72
2023-02-27T02:20:11.053Z,-1.72
2023-02-27T02:20:41.282Z,-1.72
2023-02-27T02:21:12.539Z,-1.72
2023-02-27T02:21:42.884Z,-1.72
2023-02-27T02:22:14.532Z,-1.61
2023-02-27T02:22:45.755Z,-1.61
2023-02-27T02:23:16.567Z,-1.61
2023-02-27T02:23:46.821Z,-1.61
2023-02-27T02:24:18.554Z,-1.61
2023-02-27T02:24:49.883Z,-1.61
2023-02-27T02:25:21.406Z,-1.72
2023-02-27T02:25:50.987Z,-1.72
2023-02-27T02:26:24.794Z,-1.72
2023-02-27T02:26:53.603Z,-1.72
2023-02-27T02:27:24.659Z,-1.72
2023-02-27T02:27:54.869Z,-1.72
2023-02-27T02:28:26.543Z,-1.72
2023-02-27T02:28:56.813Z,-1.72
2023-02-27T02:29:29.067Z,-1.72
2023-02-27T02:29:59.858Z,-1.72
2023-02-27T02:30:31.460Z,-1.72
2023-02-27T02:31:00.958Z,-1.72
2023-02-27T02:31:32.725Z,-1.72
2023-02-27T02:32:03.150Z,-1.72
2023-02-27T02:32:34.557Z,-1.61
2023-02-27T02:33:05.293Z,-1.61
2023-02-27T02:33:36.632Z,-1.61
2023-02-27T02:34:06.859Z,-1.61
2023-02-27T02:34:38.649Z,-1.61
2023-02-27T02:35:10.275Z,-1.61
2023-02-27T02:35:40.493Z,-1.61
2023-02-27T02:36:10.797Z,-1.61
2023-02-27T02:36:42.604Z,-1.72
2023-02-27T02:37:12.862Z,-1.72
2023-02-27T02:37:44.486Z,-1.72
2023-02-27T02:38:14.803Z,-1.72
2023-02-27T02:38:46.725Z,-1.72
2023-02-27T02:39:16.929Z,-1.72
2023-02-27T02:39:48.494Z,-1.72
2023-02-27T02:40:20.548Z,-1.72
2023-02-27T02:40:50.666Z,-1.72
2023-02-27T02:41:20.853Z,-1.72
2023-02-27T02:41:52.663Z,-1.72
2023-02-27T02:42:22.832Z,-1.72
2023-02-27T02:42:55.195Z,-1.72
2023-02-27T02:43:25.177Z,-1.72
2023-02-27T02:43:56.510Z,-1.72
2023-02-27T02:44:26.809Z,-1.72
2023-02-27T02:44:58.766Z,-1.72
2023-02-27T02:45:31.214Z,-1.77
2023-02-27T02:46:00.895Z,-1.77
2023-02-27T02:46:30.818Z,-1.72
2023-02-27T02:47:02.616Z,-1.72
2023-02-27T02:47:32.848Z,-1.77
2023-02-27T02:48:04.688Z,-1.77
2023-02-27T02:48:34.832Z,-1.77
2023-02-27T02:49:06.695Z,-1.77
2023-02-27T02:49:36.853Z,-1.77
2023-02-27T02:50:08.948Z,-1.77
2023-02-27T02:50:39.795Z,-1.77
2023-02-27T02:51:10.698Z,-1.77
2023-02-27T02:51:40.801Z,-1.77
2023-02-27T02:52:12.519Z,-1.77
2023-02-27T02:52:43.470Z,-1.77
2023-02-27T02:53:14.605Z,-1.77
2023-02-27T02:53:45.313Z,-1.77
2023-02-27T02:54:16.501Z,-1.77
2023-02-27T02:54:46.909Z,-1.77
2023-02-27T02:55:19.394Z,-1.77
2023-02-27T02:55:49.803Z,-1.77
2023-02-27T02:56:21.306Z,-1.77
2023-02-27T02:56:50.842Z,-1.77
2023-02-27T02:57:22.757Z,-1.77
2023-02-27T02:57:52.831Z,-1.77
2023-02-27T02:58:24.610Z,-1.77
2023-02-27T02:58:55.017Z,-1.77
2023-02-27T02:59:26.510Z,-1.77
2023-02-27T02:59:56.871Z,-1.77
2023-02-27T03:00:31.625Z,-1.77
2023-02-27T03:01:01.106Z,-1.77
2023-02-27T03:01:30.196Z,-1.77
2023-02-27T03:02:01.575Z,-1.77
2023-02-27T03:02:31.862Z,-1.77
2023-02-27T03:03:04.348Z,-1.77
2023-02-27T03:03:33.946Z,-1.77
2023-02-27T03:04:06.090Z,-1.77
2023-02-27T03:04:35.921Z,-1.77
2023-02-27T03:05:08.128Z,-1.77
2023-02-27T03:05:38.113Z,-1.77
2023-02-27T03:06:10.497Z,-1.77
2023-02-27T03:06:39.852Z,-1.77
2023-02-27T03:07:11.673Z,-1.77
2023-02-27T03:07:41.880Z,-1.77
2023-02-27T03:08:13.578Z,-1.77
2023-02-27T03:08:43.861Z,-1.88
2023-02-27T03:09:15.509Z,-1.88
2023-02-27T03:09:45.802Z,-1.88
2023-02-27T03:10:18.172Z,-1.88
2023-02-27T03:10:48.135Z,-1.77
2023-02-27T03:11:20.521Z,-1.88
2023-02-27T03:11:49.807Z,-1.88
2023-02-27T03:12:21.516Z,-1.77
2023-02-27T03:12:51.801Z,-1.77
2023-02-27T03:13:23.523Z,-1.77
2023-02-27T03:13:54.446Z,-1.77
2023-02-27T03:14:26.109Z,-1.77
2023-02-27T03:14:55.847Z,-1.77
2023-02-27T03:15:28.290Z,-1.77
2023-02-27T03:15:57.930Z,-1.77
2023-02-27T03:16:30.562Z,-1.77
2023-02-27T03:16:59.844Z,-1.77
2023-02-27T03:17:31.549Z,-1.77
2023-02-27T03:18:01.884Z,-1.77
2023-02-27T03:18:33.498Z,-1.77
2023-02-27T03:19:03.820Z,-1.77
2023-02-27T03:19:35.993Z,-1.77
2023-02-27T03:20:06.344Z,-1.77
2023-02-27T03:20:37.775Z,-1.77
2023-02-27T03:21:07.805Z,-1.77
2023-02-27T03:21:40.487Z,-1.77
2023-02-27T03:22:09.956Z,-1.77
2023-02-27T03:22:41.554Z,-1.77
2023-02-27T03:23:11.876Z,-1.77
2023-02-27T03:23:43.617Z,-1.77
2023-02-27T03:24:13.883Z,-1.77
2023-02-27T03:24:45.816Z,-1.77
2023-02-27T03:25:16.232Z,-1.88
2023-02-27T03:25:47.488Z,-1.88
2023-02-27T03:26:17.917Z,-1.88
2023-02-27T03:26:50.533Z,-1.77
2023-02-27T03:27:20.436Z,-1.77
2023-02-27T03:27:51.584Z,-1.77
2023-02-27T03:28:21.818Z,-1.77
2023-02-27T03:28:53.679Z,-1.77
2023-02-27T03:29:23.919Z,-1.77
2023-02-27T03:29:56.099Z,-1.77
2023-02-27T03:30:26.632Z,-1.77
2023-02-27T03:30:57.693Z,-1.77
2023-02-27T03:31:28.183Z,-1.77
2023-02-27T03:32:00.720Z,-1.77
2023-02-27T03:32:29.832Z,-1.77
2023-02-27T03:33:01.839Z,-1.77
2023-02-27T03:33:31.996Z,-1.77
2023-02-27T03:34:03.717Z,-1.77
2023-02-27T03:34:33.829Z,-1.77
2023-02-27T03:35:06.389Z,-1.77
2023-02-27T03:35:35.858Z,-1.77
2023-02-27T03:36:07.646Z,-1.77
2023-02-27T03:36:37.841Z,-1.77
2023-02-27T03:37:10.620Z,-1.77
2023-02-27T03:37:39.811Z,-1.77
2023-02-27T03:38:10.836Z,-1.77
2023-02-27T03:38:42.720Z,-1.77
2023-02-27T03:39:12.804Z,-1.77
2023-02-27T03:39:44.763Z,-1.77
2023-02-27T03:40:15.314Z,-1.77
2023-02-27T03:40:46.706Z,-1.77
2023-02-27T03:41:16.812Z,-1.77
2023-02-27T03:41:48.535Z,-1.77
2023-02-27T03:42:19.923Z,-1.77
2023-02-27T03:42:50.693Z,-1.77
2023-02-27T03:43:20.824Z,-1.77
2023-02-27T03:43:52.504Z,-1.77
2023-02-27T03:44:22.778Z,-1.77
2023-02-27T03:44:54.705Z,-1.77
2023-02-27T03:45:25.892Z,-1.77
2023-02-27T03:45:56.848Z,-1.77
2023-02-27T03:46:26.854Z,-1.77
2023-02-27T03:46:58.810Z,-1.77
2023-02-27T03:47:29.789Z,-1.77
2023-02-27T03:48:00.986Z,-1.77
2023-02-27T03:48:30.836Z,-1.77
2023-02-27T03:49:02.488Z,-1.77
2023-02-27T03:49:32.803Z,-1.77
2023-02-27T03:50:05.960Z,-1.77
2023-02-27T03:50:34.862Z,-1.77
2023-02-27T03:51:06.836Z,-1.77
2023-02-27T03:51:36.789Z,-1.77
2023-02-27T03:52:08.913Z,-1.77
2023-02-27T03:52:39.838Z,-1.77
2023-02-27T03:53:10.523Z,-1.77
2023-02-27T03:53:40.812Z,-1.77
2023-02-27T03:54:12.684Z,-1.72
2023-02-27T03:54:42.831Z,-1.72
2023-02-27T03:55:15.200Z,-1.72
2023-02-27T03:55:45.121Z,-1.72
2023-02-27T03:56:16.494Z,-1.77
2023-02-27T03:56:46.786Z,-1.77
2023-02-27T03:57:18.652Z,-1.77
2023-02-27T03:57:49.774Z,-1.77
2023-02-27T03:58:20.649Z,-1.77
2023-02-27T03:58:50.788Z,-1.77
2023-02-27T03:59:22.507Z,-1.77
2023-02-27T03:59:52.774Z,-1.77
2023-02-27T04:00:26.127Z,-1.77
2023-02-27T04:00:55.300Z,-1.77
2023-02-27T04:01:26.382Z,-1.77
2023-02-27T04:01:57.839Z,-1.77
2023-02-27T04:02:27.914Z,-1.72
2023-02-27T04:03:01.044Z,-1.72
2023-02-27T04:03:30.222Z,-1.72
2023-02-27T04:04:01.081Z,-1.72
2023-02-27T04:04:32.638Z,-1.72
2023-02-27T04:05:03.027Z,-1.72
2023-02-27T04:05:35.014Z,-1.72
2023-02-27T04:06:05.195Z,-1.72
2023-02-27T04:06:36.697Z,-1.72
2023-02-27T04:07:06.847Z,-1.72
2023-02-27T04:07:38.816Z,-1.72
2023-02-27T04:08:09.852Z,-1.72
2023-02-27T04:08:40.846Z,-1.72
2023-02-27T04:09:10.956Z,-1.72
2023-02-27T04:09:42.939Z,-1.72
2023-02-27T04:10:14.111Z,-1.77
2023-02-27T04:10:44.553Z,-1.77
2023-02-27T04:11:14.843Z,-1.77
2023-02-27T04:11:46.724Z,-1.77
2023-02-27T04:12:16.861Z,-1.77
2023-02-27T04:12:48.604Z,-1.77
2023-02-27T04:13:19.810Z,-1.77
2023-02-27T04:13:50.589Z,-1.77
2023-02-27T04:14:21.517Z,-1.72
2023-02-27T04:14:52.543Z,-1.72
2023-02-27T04:15:24.006Z,-1.72
2023-02-27T04:15:54.728Z,-1.72
2023-02-27T04:16:25.199Z,-1.72
2023-02-27T04:16:57.054Z,-1.77
2023-02-27T04:17:26.800Z,-1.77
2023-02-27T04:17:58.674Z,-1.77
2023-02-27T04:18:30.078Z,-1.77
2023-02-27T04:19:00.755Z,-1.77
2023-02-27T04:19:30.825Z,-1.77
2023-02-27T04:20:02.872Z,-1.77
2023-02-27T04:20:38.500Z,-1.77
2023-02-27T04:21:04.701Z,-1.77
2023-02-27T04:21:34.835Z,-1.77
2023-02-27T04:22:06.789Z,-1.77
2023-02-27T04:22:36.784Z,-1.77
2023-02-27T04:23:08.838Z,-1.77
2023-02-27T04:23:40.587Z,-1.77
2023-02-27T04:24:10.914Z,-1.77
2023-02-27T04:24:40.926Z,-1.77
2023-02-27T04:25:13.176Z,-1.72
2023-02-27T04:25:42.833Z,-1.72
2023-02-27T04:26:14.834Z,-1.72
2023-02-27T04:26:45.124Z,-1.72
2023-02-27T04:27:16.868Z,-1.72
2023-02-27T04:27:47.320Z,-1.72
2023-02-27T04:28:18.932Z,-1.72
2023-02-27T04:28:49.792Z,-1.72
2023-02-27T04:29:20.701Z,-1.72
2023-02-27T04:29:50.788Z,-1.77
2023-02-27T04:30:24.780Z,-1.77
2023-02-27T04:30:52.890Z,-1.77
2023-02-27T04:31:25.334Z,-1.77
2023-02-27T04:31:54.935Z,-1.77
2023-02-27T04:32:26.671Z,-1.77
2023-02-27T04:32:56.802Z,-1.77
2023-02-27T04:33:28.485Z,-1.77
2023-02-27T04:33:59.830Z,-1.77
2023-02-27T04:34:30.781Z,-1.77
2023-02-27T04:35:01.478Z,-1.77
2023-02-27T04:35:32.969Z,-1.77
2023-02-27T04:36:03.321Z,-1.77
2023-02-27T04:36:34.680Z,-1.77
2023-02-27T04:37:05.063Z,-1.77
2023-02-27T04:37:36.620Z,-1.77
2023-02-27T04:38:06.895Z,-1.77
2023-02-27T04:38:38.475Z,-1.77
2023-02-27T04:39:09.824Z,-1.77
2023-02-27T04:39:40.533Z,-1.88
2023-02-27T04:40:11.209Z,-1.88
2023-02-27T04:40:44.766Z,-1.88
2023-02-27T04:41:13.282Z,-1.88
2023-02-27T04:41:44.513Z,-1.88
2023-02-27T04:42:14.832Z,-1.88
2023-02-27T04:42:46.514Z,-1.88
2023-02-27T04:43:16.848Z,-1.88
2023-02-27T04:43:49.260Z,-1.88
2023-02-27T04:44:20.341Z,-1.88
2023-02-27T04:44:50.511Z,-1.77
2023-02-27T04:45:21.683Z,-1.77
2023-02-27T04:45:52.859Z,-1.77
2023-02-27T04:46:22.837Z,-1.77
2023-02-27T04:46:54.714Z,-1.77
2023-02-27T04:47:25.094Z,-1.77
2023-02-27T04:47:56.736Z,-1.88
2023-02-27T04:48:26.831Z,-1.88
2023-02-27T04:48:59.080Z,-1.88
2023-02-27T04:49:29.800Z,-1.88
2023-02-27T04:50:01.081Z,-1.88
2023-02-27T04:50:31.262Z,-1.88
2023-02-27T04:51:03.391Z,-1.88
2023-02-27T04:51:32.977Z,-1.77
2023-02-27T04:52:04.702Z,-1.77
2023-02-27T04:52:34.795Z,-1.77
2023-02-27T04:53:06.507Z,-1.88
2023-02-27T04:53:36.801Z,-1.88
2023-02-27T04:54:08.472Z,-1.88
2023-02-27T04:54:39.809Z,-1.88
2023-02-27T04:55:11.024Z,-1.88
2023-02-27T04:55:40.822Z,-1.88
2023-02-27T04:56:12.800Z,-1.88
2023-02-27T04:56:42.855Z,-1.88
2023-02-27T04:57:14.756Z,-1.88
2023-02-27T04:57:45.136Z,-1.77
2023-02-27T04:58:16.586Z,-1.77
2023-02-27T04:58:46.788Z,-1.72
2023-02-27T04:59:18.500Z,-1.72
2023-02-27T04:59:49.857Z,-1.72
2023-02-27T05:00:22.323Z,-1.77
2023-02-27T05:00:51.249Z,-1.77
2023-02-27T05:01:22.430Z,-1.77
2023-02-27T05:01:53.916Z,-1.77
2023-02-27T05:02:24.147Z,-1.77
2023-02-27T05:02:55.522Z,-1.77
2023-02-27T05:03:25.903Z,-1.72
2023-02-27T05:03:59.516Z,-1.72
2023-02-27T05:04:28.021Z,-1.72
2023-02-27T05:05:00.941Z,-1.77
2023-02-27T05:05:30.406Z,-1.77
2023-02-27T05:06:01.804Z,-1.77
2023-02-27T05:06:31.800Z,-1.77
2023-02-27T05:07:03.680Z,-1.77
2023-02-27T05:07:34.168Z,-1.88
2023-02-27T05:08:08.714Z,-1.88
2023-02-27T05:08:35.783Z,-1.88
2023-02-27T05:09:06.874Z,-1.88
2023-02-27T05:09:38.682Z,-1.88
2023-02-27T05:10:10.233Z,-1.88
2023-02-27T05:10:41.411Z,-1.88
2023-02-27T05:11:11.265Z,-1.88
2023-02-27T05:11:42.668Z,-1.88
2023-02-27T05:12:12.873Z,-1.88
2023-02-27T05:12:44.799Z,-1.88
2023-02-27T05:13:14.841Z,-1.88
2023-02-27T05:13:47.907Z,-1.88
2023-02-27T05:14:16.811Z,-1.88
2023-02-27T05:14:48.441Z,-1.88
2023-02-27T05:15:21.489Z,-1.88
2023-02-27T05:15:49.925Z,-1.88
2023-02-27T05:16:20.836Z,-1.88
2023-02-27T05:16:52.819Z,-1.88
2023-02-27T05:17:22.829Z,-1.77
2023-02-27T05:17:54.856Z,-1.77
2023-02-27T05:18:25.544Z,-1.77
2023-02-27T05:18:56.782Z,-1.77
2023-02-27T05:19:26.799Z,-1.77
2023-02-27T05:19:58.507Z,-1.77
2023-02-27T05:20:37.767Z,-1.77
2023-02-27T05:21:00.801Z,-1.77
2023-02-27T05:21:31.354Z,-1.77
2023-02-27T05:22:02.630Z,-1.77
2023-02-27T05:22:32.918Z,-1.77
2023-02-27T05:23:04.684Z,-1.77
2023-02-27T05:23:34.854Z,-1.77
2023-02-27T05:24:06.640Z,-1.77
2023-02-27T05:24:36.834Z,-1.77
2023-02-27T05:25:09.090Z,-1.77
2023-02-27T05:25:40.050Z,-1.77
2023-02-27T05:26:10.648Z,-1.77
2023-02-27T05:26:40.839Z,-1.77
2023-02-27T05:27:12.891Z,-1.77
2023-02-27T05:27:42.824Z,-1.77
2023-02-27T05:28:15.120Z,-1.77
2023-02-27T05:28:45.132Z,-1.77
2023-02-27T05:29:16.503Z,-1.77
2023-02-27T05:29:46.862Z,-1.77
2023-02-27T05:30:19.653Z,-1.77
2023-02-27T05:30:50.424Z,-1.77
2023-02-27T05:31:20.574Z,-1.72
2023-02-27T05:31:51.867Z,-1.72
2023-02-27T05:32:23.823Z,-1.72
2023-02-27T05:32:52.786Z,-1.61
2023-02-27T05:33:23.815Z,-1.61
2023-02-27T05:33:55.742Z,-1.61
2023-02-27T05:34:25.812Z,-1.61
2023-02-27T05:34:57.940Z,-1.61
2023-02-27T05:35:29.372Z,-1.61
2023-02-27T05:36:00.869Z,-1.61
2023-02-27T05:36:32.002Z,-1.61
2023-02-27T05:37:01.589Z,-1.61
2023-02-27T05:37:34.135Z,-1.72
2023-02-27T05:38:03.032Z,-1.72
2023-02-27T05:38:35.053Z,-1.72
2023-02-27T05:39:06.504Z,-1.72
2023-02-27T05:39:35.890Z,-1.72
2023-02-27T05:40:08.547Z,-1.72
2023-02-27T05:40:41.204Z,-1.72
2023-02-27T05:41:12.052Z,-1.72
2023-02-27T05:41:39.912Z,-1.72
2023-02-27T05:42:10.803Z,-1.77
2023-02-27T05:42:42.659Z,-1.77
2023-02-27T05:43:12.767Z,-1.77
2023-02-27T05:43:44.675Z,-1.77
2023-02-27T05:44:16.561Z,-1.77
2023-02-27T05:44:46.627Z,-1.77
2023-02-27T05:45:17.774Z,-1.77
2023-02-27T05:45:48.714Z,-1.77
2023-02-27T05:46:19.850Z,-1.77
2023-02-27T05:46:50.711Z,-1.88
2023-02-27T05:47:20.840Z,-1.88
2023-02-27T05:47:52.597Z,-1.88
2023-02-27T05:48:22.876Z,-1.88
2023-02-27T05:48:54.664Z,-1.88
2023-02-27T05:49:25.853Z,-1.88
2023-02-27T05:49:56.659Z,-1.88
2023-02-27T05:50:27.268Z,-1.88
2023-02-27T05:50:58.738Z,-1.88
2023-02-27T05:51:29.923Z,-1.88
2023-02-27T05:52:01.105Z,-1.88
2023-02-27T05:52:31.146Z,-1.88
2023-02-27T05:53:02.853Z,-1.88
2023-02-27T05:53:32.824Z,-1.88
2023-02-27T05:54:04.872Z,-1.88
2023-02-27T05:54:34.821Z,-1.88
2023-02-27T05:55:08.019Z,-1.77
2023-02-27T05:55:36.885Z,-1.77
2023-02-27T05:56:08.890Z,-1.77
2023-02-27T05:56:39.777Z,-1.77
2023-02-27T05:57:11.051Z,-1.77
2023-02-27T05:57:40.980Z,-1.77
2023-02-27T05:58:12.970Z,-1.77
2023-02-27T05:58:42.961Z,-1.77
2023-02-27T05:59:15.001Z,-1.77
2023-02-27T05:59:45.657Z,-1.77
2023-02-27T06:00:19.632Z,-1.77
2023-02-27T06:00:49.800Z,-1.72
2023-02-27T06:01:18.020Z,-1.72
2023-02-27T06:01:50.940Z,-1.72
2023-02-27T06:02:20.007Z,-1.72
2023-02-27T06:02:50.942Z,-1.72
2023-02-27T06:03:22.924Z,-1.72
2023-02-27T06:03:52.930Z,-1.72
2023-02-27T06:04:24.615Z,-1.72
2023-02-27T06:04:54.932Z,-1.72
2023-02-27T06:05:27.106Z,-1.72
2023-02-27T06:05:57.286Z,-1.72
2023-02-27T06:06:29.194Z,-1.61
2023-02-27T06:06:59.942Z,-1.72
2023-02-27T06:07:31.146Z,-1.72
2023-02-27T06:08:01.139Z,-1.72
2023-02-27T06:08:33.548Z,-1.72
2023-02-27T06:09:03.048Z,-1.72
2023-02-27T06:09:35.473Z,-1.72
2023-02-27T06:10:05.588Z,-1.72
2023-02-27T06:10:37.734Z,-1.72
2023-02-27T06:11:06.942Z,-1.72
2023-02-27T06:11:38.791Z,-1.72
2023-02-27T06:12:09.989Z,-1.72
2023-02-27T06:12:40.837Z,-1.72
2023-02-27T06:13:11.083Z,-1.72
2023-02-27T06:13:42.888Z,-1.72
2023-02-27T06:14:13.069Z,-1.72
2023-02-27T06:14:44.986Z,-1.72
2023-02-27T06:15:16.436Z,-1.72
2023-02-27T06:15:46.907Z,-1.72
2023-02-27T06:16:16.966Z,-1.72
2023-02-27T06:16:48.959Z,-1.72
2023-02-27T06:17:19.983Z,-1.77
2023-02-27T06:17:50.892Z,-1.77
2023-02-27T06:18:20.934Z,-1.77
2023-02-27T06:18:54.305Z,-1.77
2023-02-27T06:19:23.677Z,-1.77
2023-02-27T06:19:54.694Z,-1.77
2023-02-27T06:20:26.352Z,-1.77
2023-02-27T06:20:56.962Z,-1.77
2023-02-27T06:21:26.931Z,-1.72
2023-02-27T06:21:59.357Z,-1.72
2023-02-27T06:22:29.867Z,-1.72
2023-02-27T06:23:00.960Z,-1.72
2023-02-27T06:23:30.983Z,-1.72
2023-02-27T06:24:03.633Z,-1.72
2023-02-27T06:24:32.945Z,-1.72
2023-02-27T06:25:04.968Z,-1.72
2023-02-27T06:25:35.806Z,-1.72
2023-02-27T06:26:07.352Z,-1.72
2023-02-27T06:26:36.966Z,-1.72
2023-02-27T06:27:08.898Z,-1.77
2023-02-27T06:27:39.974Z,-1.77
2023-02-27T06:28:10.803Z,-1.77
2023-02-27T06:28:42.894Z,-1.77
2023-02-27T06:29:13.820Z,-1.72
2023-02-27T06:29:44.327Z,-1.72
2023-02-27T06:30:16.009Z,-1.72
2023-02-27T06:30:46.526Z,-1.77
2023-02-27T06:31:16.773Z,-1.77
2023-02-27T06:31:46.891Z,-1.77
2023-02-27T06:32:18.892Z,-1.77
2023-02-27T06:32:50.079Z,-1.77
2023-02-27T06:33:20.798Z,-1.77
2023-02-27T06:33:50.918Z,-1.77
2023-02-27T06:34:22.805Z,-1.72
2023-02-27T06:34:52.913Z,-1.72
2023-02-27T06:35:25.923Z,-1.72
2023-02-27T06:35:55.060Z,-1.77
2023-02-27T06:36:26.964Z,-1.77
2023-02-27T06:36:56.950Z,-1.77
2023-02-27T06:37:28.886Z,-1.77
2023-02-27T06:38:00.756Z,-1.77
2023-02-27T06:38:30.850Z,-1.72
2023-02-27T06:39:01.309Z,-1.72